sensor_id;sensor_type;location;lat;lon;timestamp;pressure;altitude;pressure_sealevel;temperature;humidity
20624;BME280;10471;42.736;23.346;2024-03-02T00:01:40;94978.25;;;8.91;100.00
20624;BME280;10471;42.736;23.346;2024-03-02T00:04:07;94981.94;;;8.90;100.00
20624;BME280;10471;42.736;23.346;2024-03-02T00:06:33;94976.69;;;8.90;100.00
20624;BME280;10471;42.736;23.346;2024-03-02T00:08:59;94985.16;;;8.82;100.00
20624;BME280;10471;42.736;23.346;2024-03-02T00:11:24;94985.00;;;8.63;100.00
20624;BME280;10471;42.736;23.346;2024-03-02T00:13:52;94981.66;;;8.53;100.00
20624;BME280;10471;42.736;23.346;2024-03-02T00:16:18;94976.34;;;8.63;100.00
20624;BME280;10471;42.736;23.346;2024-03-02T00:18:43;94982.63;;;8.67;100.00
20624;BME280;10471;42.736;23.346;2024-03-02T00:21:09;94978.41;;;8.71;100.00
20624;BME280;10471;42.736;23.346;2024-03-02T00:23:35;94973.66;;;8.73;100.00
20624;BME280;10471;42.736;23.346;2024-03-02T00:26:01;94975.22;;;8.74;100.00
20624;BME280;10471;42.736;23.346;2024-03-02T00:28:35;94972.38;;;8.70;100.00
20624;BME280;10471;42.736;23.346;2024-03-02T00:31:04;94976.81;;;8.70;100.00
20624;BME280;10471;42.736;23.346;2024-03-02T00:33:42;94983.13;;;8.69;100.00
20624;BME280;10471;42.736;23.346;2024-03-02T00:36:09;94976.28;;;8.73;100.00
20624;BME280;10471;42.736;23.346;2024-03-02T00:38:44;94974.16;;;8.75;100.00
20624;BME280;10471;42.736;23.346;2024-03-02T00:41:28;94966.25;;;8.80;100.00
20624;BME280;10471;42.736;23.346;2024-03-02T00:46:36;94969.38;;;8.82;100.00
20624;BME280;10471;42.736;23.346;2024-03-02T00:51:36;94970.44;;;8.81;100.00
20624;BME280;10471;42.736;23.346;2024-03-02T00:54:04;94973.59;;;8.83;100.00
20624;BME280;10471;42.736;23.346;2024-03-02T00:56:31;94968.88;;;8.80;100.00
20624;BME280;10471;42.736;23.346;2024-03-02T00:58:57;94960.94;;;8.85;100.00
20624;BME280;10471;42.736;23.346;2024-03-02T01:01:23;94958.28;;;8.90;100.00
20624;BME280;10471;42.736;23.346;2024-03-02T01:03:48;94958.84;;;8.87;100.00
20624;BME280;10471;42.736;23.346;2024-03-02T01:06:15;94953.06;;;8.85;100.00
20624;BME280;10471;42.736;23.346;2024-03-02T01:08:41;94957.00;;;8.87;100.00
20624;BME280;10471;42.736;23.346;2024-03-02T01:11:06;94958.31;;;8.85;100.00
20624;BME280;10471;42.736;23.346;2024-03-02T01:13:32;94968.84;;;8.85;100.00
20624;BME280;10471;42.736;23.346;2024-03-02T01:15:57;94967.75;;;8.91;100.00
20624;BME280;10471;42.736;23.346;2024-03-02T01:18:23;94963.00;;;8.93;100.00
20624;BME280;10471;42.736;23.346;2024-03-02T01:20:49;94950.88;;;8.97;100.00
20624;BME280;10471;42.736;23.346;2024-03-02T01:23:18;94952.19;;;8.99;100.00
20624;BME280;10471;42.736;23.346;2024-03-02T01:25:45;94952.69;;;9.01;100.00
20624;BME280;10471;42.736;23.346;2024-03-02T01:28:10;94961.88;;;9.04;100.00
20624;BME280;10471;42.736;23.346;2024-03-02T01:30:36;94949.22;;;9.06;100.00
20624;BME280;10471;42.736;23.346;2024-03-02T01:33:01;94942.41;;;9.05;100.00
20624;BME280;10471;42.736;23.346;2024-03-02T01:35:27;94949.22;;;9.06;100.00
20624;BME280;10471;42.736;23.346;2024-03-02T01:37:53;94940.28;;;9.07;100.00
20624;BME280;10471;42.736;23.346;2024-03-02T01:40:19;94939.78;;;9.05;100.00
20624;BME280;10471;42.736;23.346;2024-03-02T01:42:44;94939.81;;;9.00;100.00
20624;BME280;10471;42.736;23.346;2024-03-02T01:45:10;94935.34;;;9.00;100.00
20624;BME280;10471;42.736;23.346;2024-03-02T01:47:35;94935.59;;;9.04;100.00
20624;BME280;10471;42.736;23.346;2024-03-02T01:50:01;94934.03;;;9.03;100.00
20624;BME280;10471;42.736;23.346;2024-03-02T01:52:27;94926.13;;;9.03;100.00
20624;BME280;10471;42.736;23.346;2024-03-02T01:54:53;94929.81;;;9.02;100.00
20624;BME280;10471;42.736;23.346;2024-03-02T01:57:18;94926.19;;;8.98;100.00
20624;BME280;10471;42.736;23.346;2024-03-02T01:59:44;94936.16;;;8.96;100.00
20624;BME280;10471;42.736;23.346;2024-03-02T02:02:10;94929.91;;;8.92;100.00
20624;BME280;10471;42.736;23.346;2024-03-02T02:04:35;94929.63;;;8.93;100.00
20624;BME280;10471;42.736;23.346;2024-03-02T02:07:01;94929.13;;;8.91;100.00
20624;BME280;10471;42.736;23.346;2024-03-02T02:09:26;94928.03;;;8.92;100.00
20624;BME280;10471;42.736;23.346;2024-03-02T02:11:52;94928.84;;;8.93;100.00
20624;BME280;10471;42.736;23.346;2024-03-02T02:14:17;94924.09;;;8.95;100.00
20624;BME280;10471;42.736;23.346;2024-03-02T02:16:43;94921.47;;;8.95;100.00
20624;BME280;10471;42.736;23.346;2024-03-02T02:19:08;94924.09;;;8.95;100.00
20624;BME280;10471;42.736;23.346;2024-03-02T02:21:34;94923.56;;;8.98;100.00
20624;BME280;10471;42.736;23.346;2024-03-02T02:23:59;94924.03;;;9.00;100.00
20624;BME280;10471;42.736;23.346;2024-03-02T02:26:26;94918.78;;;9.00;100.00
20624;BME280;10471;42.736;23.346;2024-03-02T02:28:52;94918.78;;;9.00;100.00
20624;BME280;10471;42.736;23.346;2024-03-02T02:31:17;94918.78;;;9.00;100.00
20624;BME280;10471;42.736;23.346;2024-03-02T02:33:43;94918.78;;;9.00;100.00
20624;BME280;10471;42.736;23.346;2024-03-02T02:36:08;94922.75;;;9.02;100.00
20624;BME280;10471;42.736;23.346;2024-03-02T02:38:39;94916.97;;;9.00;100.00
20624;BME280;10471;42.736;23.346;2024-03-02T02:41:05;94924.03;;;9.00;100.00
20624;BME280;10471;42.736;23.346;2024-03-02T02:43:31;94926.66;;;9.05;100.00
20624;BME280;10471;42.736;23.346;2024-03-02T02:45:56;94926.13;;;9.03;100.00
20624;BME280;10471;42.736;23.346;2024-03-02T02:48:22;94926.66;;;9.05;100.00
20624;BME280;10471;42.736;23.346;2024-03-02T02:50:47;94928.19;;;9.06;100.00
20624;BME280;10471;42.736;23.346;2024-03-02T02:53:13;94923.50;;;9.03;100.00
20624;BME280;10471;42.736;23.346;2024-03-02T02:55:39;94931.09;;;9.04;100.00
20624;BME280;10471;42.736;23.346;2024-03-02T02:58:06;94920.88;;;9.03;100.00
20624;BME280;10471;42.736;23.346;2024-03-02T03:00:31;94926.13;;;9.03;100.00
20624;BME280;10471;42.736;23.346;2024-03-02T03:02:57;94922.44;;;9.04;100.00
20624;BME280;10471;42.736;23.346;2024-03-02T03:05:22;94924.03;;;9.00;100.00
20624;BME280;10471;42.736;23.346;2024-03-02T03:07:48;94916.69;;;9.02;100.00
20624;BME280;10471;42.736;23.346;2024-03-02T03:10:17;94931.09;;;9.04;100.00
20624;BME280;10471;42.736;23.346;2024-03-02T03:12:42;94923.28;;;8.99;100.00
20624;BME280;10471;42.736;23.346;2024-03-02T03:15:09;94920.38;;;9.01;100.00
20624;BME280;10471;42.736;23.346;2024-03-02T03:17:35;94918.28;;;8.98;100.00
20624;BME280;10471;42.736;23.346;2024-03-02T03:20:01;94916.75;;;8.92;100.00
20624;BME280;10471;42.736;23.346;2024-03-02T03:22:26;94916.34;;;8.80;100.00
20624;BME280;10471;42.736;23.346;2024-03-02T03:24:52;94914.75;;;8.84;100.00
20624;BME280;10471;42.736;23.346;2024-03-02T03:27:18;94921.28;;;8.86;100.00
20624;BME280;10471;42.736;23.346;2024-03-02T03:29:45;94921.25;;;8.91;100.00
20624;BME280;10471;42.736;23.346;2024-03-02T03:32:10;94917.28;;;8.94;100.00
20624;BME280;10471;42.736;23.346;2024-03-02T03:34:35;94929.84;;;8.97;100.00
20624;BME280;10471;42.736;23.346;2024-03-02T03:37:01;94924.84;;;9.00;100.00
20624;BME280;10471;42.736;23.346;2024-03-02T03:39:27;94927.19;;;9.02;100.00
20624;BME280;10471;42.736;23.346;2024-03-02T03:41:53;94927.19;;;9.02;100.00
20624;BME280;10471;42.736;23.346;2024-03-02T03:44:19;94921.94;;;9.02;100.00
20624;BME280;10471;42.736;23.346;2024-03-02T03:46:44;94926.91;;;9.03;100.00
20624;BME280;10471;42.736;23.346;2024-03-02T03:49:09;94916.69;;;9.02;100.00
20624;BME280;10471;42.736;23.346;2024-03-02T03:51:35;94921.41;;;9.00;100.00
20624;BME280;10471;42.736;23.346;2024-03-02T03:54:01;94917.25;;;8.99;100.00
20624;BME280;10471;42.736;23.346;2024-03-02T03:56:26;94925.13;;;8.99;100.00
20624;BME280;10471;42.736;23.346;2024-03-02T03:58:52;94916.72;;;8.97;100.00
20624;BME280;10471;42.736;23.346;2024-03-02T04:01:17;94920.38;;;9.01;100.00
20624;BME280;10471;42.736;23.346;2024-03-02T04:03:43;94916.72;;;8.97;100.00
20624;BME280;10471;42.736;23.346;2024-03-02T04:06:08;94919.06;;;8.98;100.00
20624;BME280;10471;42.736;23.346;2024-03-02T04:08:34;94918.00;;;8.99;100.00
20624;BME280;10471;42.736;23.346;2024-03-02T04:10:59;94917.72;;;9.01;100.00
20624;BME280;10471;42.736;23.346;2024-03-02T04:13:24;94924.56;;;9.02;100.00
20624;BME280;10471;42.736;23.346;2024-03-02T04:15:50;94918.78;;;9.00;100.00
20624;BME280;10471;42.736;23.346;2024-03-02T04:18:15;94918.00;;;8.99;100.00
20624;BME280;10471;42.736;23.346;2024-03-02T04:20:41;94920.94;;;8.98;100.00
20624;BME280;10471;42.736;23.346;2024-03-02T04:23:06;94919.34;;;8.97;100.00
20624;BME280;10471;42.736;23.346;2024-03-02T04:25:32;94923.03;;;8.96;100.00
20624;BME280;10471;42.736;23.346;2024-03-02T04:27:58;94919.34;;;8.97;100.00
20624;BME280;10471;42.736;23.346;2024-03-02T04:30:23;94918.59;;;8.96;100.00
20624;BME280;10471;42.736;23.346;2024-03-02T04:32:50;94920.69;;;8.94;100.00
20624;BME280;10471;42.736;23.346;2024-03-02T04:35:15;94920.44;;;8.91;100.00
20624;BME280;10471;42.736;23.346;2024-03-02T04:37:41;94923.59;;;8.93;100.00
20624;BME280;10471;42.736;23.346;2024-03-02T04:40:07;94919.44;;;8.87;100.00
20624;BME280;10471;42.736;23.346;2024-03-02T04:42:35;94924.97;;;8.85;100.00
20624;BME280;10471;42.736;23.346;2024-03-02T04:45:01;94922.59;;;8.89;100.00
20624;BME280;10471;42.736;23.346;2024-03-02T04:47:26;94925.75;;;8.86;100.00
20624;BME280;10471;42.736;23.346;2024-03-02T04:49:52;94922.34;;;8.85;100.00
20624;BME280;10471;42.736;23.346;2024-03-02T04:52:17;94924.22;;;8.80;100.00
20624;BME280;10471;42.736;23.346;2024-03-02T04:54:43;94927.91;;;8.79;100.00
20624;BME280;10471;42.736;23.346;2024-03-02T04:57:27;94927.34;;;8.82;100.00
20624;BME280;10471;42.736;23.346;2024-03-02T04:59:52;94925.25;;;8.84;100.00
20624;BME280;10471;42.736;23.346;2024-03-02T05:02:18;94926.78;;;8.85;100.00
20624;BME280;10471;42.736;23.346;2024-03-02T05:04:43;94932.63;;;8.82;100.00
20624;BME280;10471;42.736;23.346;2024-03-02T05:07:08;94928.44;;;8.76;100.00
20624;BME280;10471;42.736;23.346;2024-03-02T05:09:34;94936.38;;;8.71;100.00
20624;BME280;10471;42.736;23.346;2024-03-02T05:11:59;94937.41;;;8.70;100.00
20624;BME280;10471;42.736;23.346;2024-03-02T05:14:42;94943.22;;;8.67;100.00
20624;BME280;10471;42.736;23.346;2024-03-02T05:17:08;94943.78;;;8.59;100.00
20624;BME280;10471;42.736;23.346;2024-03-02T05:19:33;94948.53;;;8.62;100.00
20624;BME280;10471;42.736;23.346;2024-03-02T05:21:58;94945.94;;;8.57;100.00
20624;BME280;10471;42.736;23.346;2024-03-02T05:24:24;94948.59;;;8.52;100.00
20624;BME280;10471;42.736;23.346;2024-03-02T05:26:52;94948.38;;;8.44;100.00
20624;BME280;10471;42.736;23.346;2024-03-02T05:29:17;94945.41;;;8.55;100.00
20624;BME280;10471;42.736;23.346;2024-03-02T05:31:43;94954.84;;;8.56;100.00
20624;BME280;10471;42.736;23.346;2024-03-02T05:34:08;94955.38;;;8.58;100.00
20624;BME280;10471;42.736;23.346;2024-03-02T05:36:34;94965.31;;;8.61;100.00
20624;BME280;10471;42.736;23.346;2024-03-02T05:38:59;94962.19;;;8.59;100.00
20624;BME280;10471;42.736;23.346;2024-03-02T05:41:24;94961.13;;;8.60;100.00
20624;BME280;10471;42.736;23.346;2024-03-02T05:43:50;94971.09;;;8.63;100.00
20624;BME280;10471;42.736;23.346;2024-03-02T05:46:15;94964.75;;;8.69;100.00
20624;BME280;10471;42.736;23.346;2024-03-02T05:48:41;94961.59;;;8.72;100.00
20624;BME280;10471;42.736;23.346;2024-03-02T05:51:06;94966.84;;;8.72;100.00
20624;BME280;10471;42.736;23.346;2024-03-02T05:53:32;94980.75;;;8.72;100.00
20624;BME280;10471;42.736;23.346;2024-03-02T05:55:57;94973.66;;;8.73;100.00
20624;BME280;10471;42.736;23.346;2024-03-02T05:58:23;94971.25;;;8.76;100.00
20624;BME280;10471;42.736;23.346;2024-03-02T06:01:07;94973.63;;;8.78;100.00
20624;BME280;10471;42.736;23.346;2024-03-02T06:03:32;94981.22;;;8.79;100.00
20624;BME280;10471;42.736;23.346;2024-03-02T06:05:58;94977.56;;;8.80;100.00
20624;BME280;10471;42.736;23.346;2024-03-02T06:08:23;94984.59;;;8.85;100.00
20624;BME280;10471;42.736;23.346;2024-03-02T06:10:48;94980.41;;;8.84;100.00
20624;BME280;10471;42.736;23.346;2024-03-02T06:13:14;94977.75;;;8.89;100.00
20624;BME280;10471;42.736;23.346;2024-03-02T06:15:39;94975.63;;;8.91;100.00
20624;BME280;10471;42.736;23.346;2024-03-02T06:18:05;94980.19;;;8.80;100.00
20624;BME280;10471;42.736;23.346;2024-03-02T06:20:32;94971.97;;;8.87;100.00
20624;BME280;10471;42.736;23.346;2024-03-02T06:22:58;94980.34;;;8.94;100.00
20624;BME280;10471;42.736;23.346;2024-03-02T06:25:23;94981.38;;;8.98;100.00
20624;BME280;10471;42.736;23.346;2024-03-02T06:27:48;94982.94;;;8.99;100.00
20624;BME280;10471;42.736;23.346;2024-03-02T06:30:14;94982.09;;;9.03;100.00
20624;BME280;10471;42.736;23.346;2024-03-02T06:32:39;94982.34;;;9.07;100.00
20624;BME280;10471;42.736;23.346;2024-03-02T06:35:05;94983.34;;;9.11;100.00
20624;BME280;10471;42.736;23.346;2024-03-02T06:37:32;94983.31;;;9.15;100.00
20624;BME280;10471;42.736;23.346;2024-03-02T06:39:58;94981.47;;;9.16;100.00
20624;BME280;10471;42.736;23.346;2024-03-02T06:42:23;94987.50;;;9.16;100.00
20624;BME280;10471;42.736;23.346;2024-03-02T06:44:49;94988.53;;;9.20;100.00
20624;BME280;10471;42.736;23.346;2024-03-02T06:47:15;95000.63;;;9.21;100.00
20624;BME280;10471;42.736;23.346;2024-03-02T06:49:42;94999.03;;;9.20;100.00
20624;BME280;10471;42.736;23.346;2024-03-02T06:52:07;94996.41;;;9.25;100.00
20624;BME280;10471;42.736;23.346;2024-03-02T06:54:33;95003.75;;;9.23;100.00
20624;BME280;10471;42.736;23.346;2024-03-02T06:57:00;95002.16;;;9.27;100.00
20624;BME280;10471;42.736;23.346;2024-03-02T06:59:25;95001.88;;;9.29;100.00
20624;BME280;10471;42.736;23.346;2024-03-02T07:01:50;95001.09;;;9.28;100.00
20624;BME280;10471;42.736;23.346;2024-03-02T07:04:16;95010.00;;;9.32;100.00
20624;BME280;10471;42.736;23.346;2024-03-02T07:06:41;95005.25;;;9.34;100.00
20624;BME280;10471;42.736;23.346;2024-03-02T07:09:06;95008.41;;;9.31;100.00
20624;BME280;10471;42.736;23.346;2024-03-02T07:11:36;95001.56;;;9.35;100.00
20624;BME280;10471;42.736;23.346;2024-03-02T07:14:01;95005.97;;;9.40;100.00
20624;BME280;10471;42.736;23.346;2024-03-02T07:16:27;95006.25;;;9.38;100.00
20624;BME280;10471;42.736;23.346;2024-03-02T07:18:54;95009.22;;;9.32;100.00
20624;BME280;10471;42.736;23.346;2024-03-02T07:21:21;95010.47;;;9.39;100.00
20624;BME280;10471;42.736;23.346;2024-03-02T07:23:47;95017.78;;;9.42;100.00
20624;BME280;10471;42.736;23.346;2024-03-02T07:26:13;95013.81;;;9.45;100.00
20624;BME280;10471;42.736;23.346;2024-03-02T07:28:41;95015.91;;;9.48;100.00
20624;BME280;10471;42.736;23.346;2024-03-02T07:31:06;95015.63;;;9.49;100.00
20624;BME280;10471;42.736;23.346;2024-03-02T07:33:32;95021.94;;;9.48;100.00
20624;BME280;10471;42.736;23.346;2024-03-02T07:35:59;95016.69;;;9.48;100.00
20624;BME280;10471;42.736;23.346;2024-03-02T07:38:26;95020.38;;;9.47;100.00
20624;BME280;10471;42.736;23.346;2024-03-02T07:40:51;95025.63;;;9.47;100.00
20624;BME280;10471;42.736;23.346;2024-03-02T07:43:18;95020.94;;;9.44;100.00
20624;BME280;10471;42.736;23.346;2024-03-02T07:45:47;95028.78;;;9.49;100.00
20624;BME280;10471;42.736;23.346;2024-03-02T07:48:13;95025.88;;;9.51;100.00
20624;BME280;10471;42.736;23.346;2024-03-02T07:50:39;95031.38;;;9.54;100.00
20624;BME280;10471;42.736;23.346;2024-03-02T07:53:05;95027.13;;;9.58;100.00
20624;BME280;10471;42.736;23.346;2024-03-02T07:55:31;95031.03;;;9.61;100.00
20624;BME280;10471;42.736;23.346;2024-03-02T07:57:57;95026.00;;;9.64;100.00
20624;BME280;10471;42.736;23.346;2024-03-02T08:00:23;95034.97;;;9.63;100.00
20624;BME280;10471;42.736;23.346;2024-03-02T08:02:49;95032.91;;;9.60;100.00
20624;BME280;10471;42.736;23.346;2024-03-02T08:05:16;95035.44;;;9.70;100.00
20624;BME280;10471;42.736;23.346;2024-03-02T08:07:43;95038.59;;;9.72;100.00
20624;BME280;10471;42.736;23.346;2024-03-02T08:10:09;95033.31;;;9.72;100.00
20624;BME280;10471;42.736;23.346;2024-03-02T08:12:35;95034.88;;;9.73;100.00
20624;BME280;10471;42.736;23.346;2024-03-02T08:15:00;95039.59;;;9.76;100.00
20624;BME280;10471;42.736;23.346;2024-03-02T08:17:25;95044.84;;;9.76;100.00
20624;BME280;10471;42.736;23.346;2024-03-02T08:19:51;95038.97;;;9.84;100.00
20624;BME280;10471;42.736;23.346;2024-03-02T08:22:16;95045.75;;;9.90;100.00
20624;BME280;10471;42.736;23.346;2024-03-02T08:24:42;95036.09;;;9.80;100.00
20624;BME280;10471;42.736;23.346;2024-03-02T08:27:07;95051.59;;;9.87;100.00
20624;BME280;10471;42.736;23.346;2024-03-02T08:29:34;95042.56;;;9.98;100.00
20624;BME280;10471;42.736;23.346;2024-03-02T08:32:00;95032.47;;;10.05;100.00
20624;BME280;10471;42.736;23.346;2024-03-02T08:34:25;95032.94;;;10.12;100.00
20624;BME280;10471;42.736;23.346;2024-03-02T08:36:51;95033.16;;;10.15;100.00
20624;BME280;10471;42.736;23.346;2024-03-02T08:39:17;95032.03;;;10.21;100.00
20624;BME280;10471;42.736;23.346;2024-03-02T08:41:44;95032.03;;;10.21;100.00
20624;BME280;10471;42.736;23.346;2024-03-02T08:44:10;95035.63;;;10.30;100.00
20624;BME280;10471;42.736;23.346;2024-03-02T08:46:36;95036.41;;;10.31;100.00
20624;BME280;10471;42.736;23.346;2024-03-02T08:49:02;95037.44;;;10.30;100.00
20624;BME280;10471;42.736;23.346;2024-03-02T08:51:27;95039.31;;;10.29;100.00
20624;BME280;10471;42.736;23.346;2024-03-02T08:53:52;95035.28;;;10.37;100.00
20624;BME280;10471;42.736;23.346;2024-03-02T08:56:18;95039.06;;;10.49;100.00
20624;BME280;10471;42.736;23.346;2024-03-02T08:58:45;95033.44;;;10.55;100.00
20624;BME280;10471;42.736;23.346;2024-03-02T09:01:11;95038.63;;;10.65;100.00
20624;BME280;10471;42.736;23.346;2024-03-02T09:03:37;95035.41;;;10.68;100.00
20624;BME280;10471;42.736;23.346;2024-03-02T09:06:02;95040.03;;;10.76;100.00
20624;BME280;10471;42.736;23.346;2024-03-02T09:08:28;95040.59;;;10.73;100.00
20624;BME280;10471;42.736;23.346;2024-03-02T09:10:54;95033.63;;;10.82;100.00
20624;BME280;10471;42.736;23.346;2024-03-02T09:13:21;95038.34;;;10.85;100.00
20624;BME280;10471;42.736;23.346;2024-03-02T09:15:46;95038.56;;;10.89;100.00
20624;BME280;10471;42.736;23.346;2024-03-02T09:18:11;95048.88;;;10.85;100.00
20624;BME280;10471;42.736;23.346;2024-03-02T09:20:37;95051.91;;;10.74;100.00
20624;BME280;10471;42.736;23.346;2024-03-02T09:23:02;95055.84;;;10.76;100.00
20624;BME280;10471;42.736;23.346;2024-03-02T09:25:28;95050.25;;;10.83;100.00
20624;BME280;10471;42.736;23.346;2024-03-02T09:27:53;95048.81;;;10.90;100.00
20624;BME280;10471;42.736;23.346;2024-03-02T09:30:18;95058.72;;;10.98;100.00
20624;BME280;10471;42.736;23.346;2024-03-02T09:32:44;95056.66;;;10.95;100.00
20624;BME280;10471;42.736;23.346;2024-03-02T09:35:09;95053.06;;;11.05;100.00
20624;BME280;10471;42.736;23.346;2024-03-02T09:37:35;95058.63;;;11.03;100.00
20624;BME280;10471;42.736;23.346;2024-03-02T09:40:01;95060.22;;;11.04;100.00
20624;BME280;10471;42.736;23.346;2024-03-02T09:42:27;95051.16;;;11.10;100.00
20624;BME280;10471;42.736;23.346;2024-03-02T09:44:53;95064.28;;;11.15;100.00
20624;BME280;10471;42.736;23.346;2024-03-02T09:47:19;95061.34;;;11.16;100.00
20624;BME280;10471;42.736;23.346;2024-03-02T09:49:44;95065.28;;;11.19;100.00
20624;BME280;10471;42.736;23.346;2024-03-02T09:52:10;95057.34;;;11.19;100.00
20624;BME280;10471;42.736;23.346;2024-03-02T09:54:36;95058.44;;;11.18;100.00
20624;BME280;10471;42.736;23.346;2024-03-02T09:57:02;95057.94;;;11.16;100.00
20624;BME280;10471;42.736;23.346;2024-03-02T09:59:28;95063.69;;;11.18;100.00
20624;BME280;10471;42.736;23.346;2024-03-02T10:02:01;95063.38;;;11.24;100.00
20624;BME280;10471;42.736;23.346;2024-03-02T10:04:29;95062.41;;;11.34;100.00
20624;BME280;10471;42.736;23.346;2024-03-02T10:07:10;95062.91;;;11.36;100.00
20624;BME280;10471;42.736;23.346;2024-03-02T10:09:37;95063.25;;;11.48;100.00
20624;BME280;10471;42.736;23.346;2024-03-02T10:12:09;95060.97;;;11.60;100.00
20624;BME280;10471;42.736;23.346;2024-03-02T10:14:35;95067.81;;;11.61;100.00
20624;BME280;10471;42.736;23.346;2024-03-02T10:17:05;95065.53;;;11.73;100.00
20624;BME280;10471;42.736;23.346;2024-03-02T10:19:31;95051.66;;;11.80;100.00
20624;BME280;10471;42.736;23.346;2024-03-02T10:21:58;95061.69;;;11.97;100.00
20624;BME280;10471;42.736;23.346;2024-03-02T10:24:24;95064.63;;;12.09;100.00
20624;BME280;10471;42.736;23.346;2024-03-02T10:26:53;95064.84;;;12.26;100.00
20624;BME280;10471;42.736;23.346;2024-03-02T10:29:19;95061.34;;;12.43;100.00
20624;BME280;10471;42.736;23.346;2024-03-02T10:31:46;95058.00;;;12.51;100.00
20624;BME280;10471;42.736;23.346;2024-03-02T10:34:12;95060.53;;;12.56;100.00
20624;BME280;10471;42.736;23.346;2024-03-02T10:36:41;95061.03;;;12.72;100.00
20624;BME280;10471;42.736;23.346;2024-03-02T10:39:08;95057.59;;;12.71;100.00
20624;BME280;10471;42.736;23.346;2024-03-02T10:41:35;95063.47;;;12.68;100.00
20624;BME280;10471;42.736;23.346;2024-03-02T10:44:05;95060.72;;;12.73;100.00
20624;BME280;10471;42.736;23.346;2024-03-02T10:46:33;95056.22;;;12.74;100.00
20624;BME280;10471;42.736;23.346;2024-03-02T10:49:00;95062.50;;;12.78;100.00
20624;BME280;10471;42.736;23.346;2024-03-02T10:51:26;95054.84;;;12.76;100.00
20624;BME280;10471;42.736;23.346;2024-03-02T10:53:54;95054.47;;;12.69;100.00
20624;BME280;10471;42.736;23.346;2024-03-02T10:56:22;95043.59;;;12.71;100.00
20624;BME280;10471;42.736;23.346;2024-03-02T10:58:58;95041.34;;;12.78;100.00
20624;BME280;10471;42.736;23.346;2024-03-02T11:01:26;95042.13;;;12.78;100.00
20624;BME280;10471;42.736;23.346;2024-03-02T11:03:54;95043.28;;;12.72;100.00
20624;BME280;10471;42.736;23.346;2024-03-02T11:06:22;95041.72;;;12.71;100.00
20624;BME280;10471;42.736;23.346;2024-03-02T11:08:49;95045.28;;;12.67;100.00
20624;BME280;10471;42.736;23.346;2024-03-02T11:11:21;95052.34;;;12.31;100.00
20624;BME280;10471;42.736;23.346;2024-03-02T11:13:52;95042.03;;;12.30;100.00
20624;BME280;10471;42.736;23.346;2024-03-02T11:16:34;95038.03;;;12.32;100.00
20624;BME280;10471;42.736;23.346;2024-03-02T11:19:06;95042.94;;;12.25;100.00
20624;BME280;10471;42.736;23.346;2024-03-02T11:21:36;95045.28;;;12.27;100.00
20624;BME280;10471;42.736;23.346;2024-03-02T11:24:37;95038.22;;;12.22;100.00
20624;BME280;10471;42.736;23.346;2024-03-02T11:27:04;95035.84;;;12.07;100.00
20624;BME280;10471;42.736;23.346;2024-03-02T11:32:13;95035.09;;;12.20;100.00
20624;BME280;10471;42.736;23.346;2024-03-02T11:34:41;95028.66;;;12.26;100.00
20624;BME280;10471;42.736;23.346;2024-03-02T11:37:10;95031.66;;;12.33;100.00
20624;BME280;10471;42.736;23.346;2024-03-02T11:39:37;95032.53;;;12.42;100.00
20624;BME280;10471;42.736;23.346;2024-03-02T11:42:06;95031.00;;;12.54;100.00
20624;BME280;10471;42.736;23.346;2024-03-02T11:44:35;95033.44;;;12.51;100.00
20624;BME280;10471;42.736;23.346;2024-03-02T11:47:05;95030.38;;;12.57;100.00
20624;BME280;10471;42.736;23.346;2024-03-02T11:49:44;95034.09;;;12.70;100.00
20624;BME280;10471;42.736;23.346;2024-03-02T11:52:14;95034.09;;;12.70;100.00
20624;BME280;10471;42.736;23.346;2024-03-02T11:54:47;95032.72;;;12.59;100.00
20624;BME280;10471;42.736;23.346;2024-03-02T11:57:19;95037.47;;;12.48;100.00
20624;BME280;10471;42.736;23.346;2024-03-02T11:59:46;95035.88;;;12.34;100.00
20624;BME280;10471;42.736;23.346;2024-03-02T12:02:17;95034.00;;;12.35;100.00
20624;BME280;10471;42.736;23.346;2024-03-02T12:04:43;95021.09;;;12.33;100.00
20624;BME280;10471;42.736;23.346;2024-03-02T12:07:10;95031.66;;;12.20;100.00
20624;BME280;10471;42.736;23.346;2024-03-02T12:09:36;95025.50;;;12.11;100.00
20624;BME280;10471;42.736;23.346;2024-03-02T12:12:09;95025.59;;;12.19;100.00
20624;BME280;10471;42.736;23.346;2024-03-02T12:14:38;95022.56;;;12.26;100.00
20624;BME280;10471;42.736;23.346;2024-03-02T12:17:04;95025.50;;;12.24;100.00
20624;BME280;10471;42.736;23.346;2024-03-02T12:19:30;95025.41;;;12.29;100.00
20624;BME280;10471;42.736;23.346;2024-03-02T12:21:57;95025.72;;;12.28;100.00
20624;BME280;10471;42.736;23.346;2024-03-02T12:24:23;95036.47;;;12.31;100.00
20624;BME280;10471;42.736;23.346;2024-03-02T12:26:50;95032.38;;;12.25;100.00
20624;BME280;10471;42.736;23.346;2024-03-02T12:29:16;95034.91;;;12.30;100.00
20624;BME280;10471;42.736;23.346;2024-03-02T12:31:42;95029.22;;;12.23;100.00
20624;BME280;10471;42.736;23.346;2024-03-02T12:34:12;95030.00;;;12.10;100.00
20624;BME280;10471;42.736;23.346;2024-03-02T12:36:39;95042.13;;;12.11;100.00
20624;BME280;10471;42.736;23.346;2024-03-02T12:39:10;95035.09;;;12.07;100.00
20624;BME280;10471;42.736;23.346;2024-03-02T12:41:39;95025.59;;;12.19;100.00
20624;BME280;10471;42.736;23.346;2024-03-02T12:44:05;95031.28;;;12.26;100.00
20624;BME280;10471;42.736;23.346;2024-03-02T12:46:31;95037.06;;;12.28;100.00
20624;BME280;10471;42.736;23.346;2024-03-02T12:48:58;95034.31;;;12.33;100.00
20624;BME280;10471;42.736;23.346;2024-03-02T12:51:24;95029.44;;;12.27;100.00
20624;BME280;10471;42.736;23.346;2024-03-02T12:54:02;95034.91;;;12.30;100.00